Terminal Aerodrome Forecast
Issued by NWS

Home | Current Version | Previous Version | Text Only | Print | Product List | Glossary On
Versions: 1 2 3 4 5 6 7 8 9 10 11 12 13 14
000
FTUS42 KTAE 191100
TAFECP
TAF
KECP 191120Z 1912/2012 06003KT P6SM -RA BKN110 OVC250
     FM191400 07005KT 6SM -RA BKN100 OVC250
     FM191900 14008KT P6SM SCT100 BKN250
     FM200500 08003KT P6SM SCT250=

USA.gov is the U.S. government's official web portal to all federal, state and local government web resources and services.